createdAt,value
2023-05-13T00:00:09.072Z,8.80
2023-05-13T00:02:38.956Z,8.80
2023-05-13T00:05:08.652Z,8.90
2023-05-13T00:07:39.150Z,9.00
2023-05-13T00:10:08.803Z,9.10
2023-05-13T00:12:38.777Z,9.20
2023-05-13T00:15:08.821Z,9.30
2023-05-13T00:17:38.240Z,9.40
2023-05-13T00:20:08.950Z,9.50
2023-05-13T00:22:38.803Z,9.60
2023-05-13T00:25:09.197Z,9.70
2023-05-13T00:27:39.247Z,9.80
2023-05-13T00:30:10.029Z,9.80
2023-05-13T00:32:39.589Z,10.00
2023-05-13T00:35:09.149Z,10.10
2023-05-13T00:37:38.537Z,10.20
2023-05-13T00:40:08.271Z,10.30
2023-05-13T00:42:37.751Z,10.40
2023-05-13T00:45:07.406Z,10.50
2023-05-13T00:47:37.294Z,10.60
2023-05-13T00:50:07.156Z,10.80
2023-05-13T00:52:37.012Z,10.80
2023-05-13T00:55:08.336Z,10.90
2023-05-13T00:57:38.121Z,11.10
2023-05-13T01:00:08.428Z,11.20
2023-05-13T02:21:15.123Z,12.80
2023-05-13T02:23:45.730Z,12.80
2023-05-13T02:26:16.189Z,12.80
2023-05-13T02:28:45.593Z,12.90
2023-05-13T02:31:14.986Z,12.90
2023-05-13T02:33:44.753Z,13.20
2023-05-13T02:36:14.133Z,13.30
2023-05-13T02:38:44.739Z,13.60
2023-05-13T02:41:14.335Z,13.80
2023-05-13T02:43:45.319Z,14.00
2023-05-13T02:46:14.730Z,14.10
2023-05-13T02:48:44.269Z,14.30
2023-05-13T02:51:13.622Z,14.40
2023-05-13T02:53:43.384Z,14.60
2023-05-13T02:56:12.852Z,14.70
2023-05-13T02:58:42.617Z,14.80
2023-05-13T03:01:12.671Z,15.00
2023-05-13T03:03:42.285Z,15.10
2023-05-13T03:06:11.734Z,15.10
2023-05-13T03:08:42.330Z,15.20
2023-05-13T03:11:11.698Z,15.40
2023-05-13T03:13:41.528Z,15.50
2023-05-13T03:16:12.040Z,15.60
2023-05-13T03:18:42.776Z,15.70
2023-05-13T06:49:52.638Z,14.20
2023-05-13T06:52:22.028Z,14.10
2023-05-13T06:54:51.374Z,14.00
2023-05-13T06:57:23.378Z,13.90
2023-05-13T06:59:59.051Z,13.80
2023-05-13T07:02:28.691Z,13.70
2023-05-13T07:04:58.106Z,13.60
2023-05-13T07:07:27.918Z,13.50
2023-05-13T07:09:57.346Z,13.40
2023-05-13T07:12:27.874Z,13.30
2023-05-13T07:14:57.992Z,13.20
2023-05-13T07:17:27.985Z,13.10
2023-05-13T07:19:58.877Z,13.00
2023-05-13T07:22:28.495Z,12.90
2023-05-13T07:24:59.269Z,12.80
2023-05-13T07:27:29.695Z,12.80
2023-05-13T07:29:59.093Z,12.60
2023-05-13T07:32:28.527Z,12.50
2023-05-13T07:34:57.977Z,12.40
2023-05-13T07:37:27.371Z,12.30
2023-05-13T07:39:56.790Z,12.30
2023-05-13T07:42:26.957Z,12.20
2023-05-13T07:44:56.370Z,12.20
2023-05-13T07:47:25.806Z,12.10
2023-05-13T07:52:34.736Z,11.80
2023-05-13T07:55:04.290Z,11.80
2023-05-13T07:57:33.908Z,11.70
2023-05-13T08:00:03.377Z,11.60
2023-05-13T08:02:36.342Z,11.60
2023-05-13T08:05:09.941Z,11.60
2023-05-13T08:07:39.513Z,11.50
2023-05-13T08:10:09.748Z,11.50
2023-05-13T08:12:39.151Z,11.40
2023-05-13T08:15:10.083Z,11.40
2023-05-13T08:17:39.862Z,11.30
2023-05-13T08:20:09.504Z,11.30
2023-05-13T08:22:39.036Z,11.30
2023-05-13T08:25:08.526Z,11.20
2023-05-13T08:27:39.006Z,11.20
2023-05-13T08:30:08.864Z,11.10
2023-05-13T08:32:39.551Z,11.00
2023-05-13T08:35:09.145Z,11.00
2023-05-13T08:37:38.502Z,10.90
2023-05-13T08:40:08.747Z,10.90
2023-05-13T08:42:40.965Z,10.80
2023-05-13T08:45:12.213Z,10.80
2023-05-13T08:47:51.862Z,10.80
2023-05-13T08:50:21.865Z,10.80
2023-05-13T08:55:50.335Z,10.80
2023-05-13T08:58:20.118Z,10.80
2023-05-13T09:00:51.819Z,10.80
2023-05-13T09:03:21.705Z,10.70
2023-05-13T09:05:51.117Z,10.70
2023-05-13T09:08:21.830Z,10.60
2023-05-13T09:10:51.561Z,10.60
2023-05-13T09:13:20.990Z,10.60
2023-05-13T09:15:50.610Z,10.60
2023-05-13T09:18:20.928Z,10.60
2023-05-13T09:20:50.376Z,10.50
2023-05-13T09:23:21.599Z,10.50
2023-05-13T09:25:51.062Z,10.50
2023-05-13T09:28:20.412Z,10.50
2023-05-13T09:30:57.696Z,10.40
2023-05-13T09:33:33.163Z,10.40
2023-05-13T09:36:06.125Z,10.30
2023-05-13T09:38:38.936Z,10.30
2023-05-13T09:41:08.390Z,10.30
2023-05-13T09:43:41.847Z,10.20
2023-05-13T09:46:11.838Z,10.20
2023-05-13T09:48:44.869Z,10.20
2023-05-13T09:51:14.721Z,10.20
2023-05-13T09:53:44.188Z,10.20
2023-05-13T09:56:14.751Z,10.10
2023-05-13T09:58:53.829Z,10.10
2023-05-13T10:01:25.760Z,10.10
2023-05-13T10:03:59.841Z,10.10
2023-05-13T10:06:30.334Z,10.10
2023-05-13T10:09:03.502Z,10.10
2023-05-13T10:11:35.630Z,10.10
2023-05-13T10:14:07.638Z,10.00
2023-05-13T10:16:38.223Z,9.90
2023-05-13T10:19:08.239Z,9.90
2023-05-13T10:21:39.768Z,9.90
2023-05-13T10:24:10.507Z,9.80
2023-05-13T11:01:18.402Z,9.40
2023-05-13T11:03:55.791Z,9.40
2023-05-13T11:06:26.139Z,9.40
2023-05-13T11:08:56.355Z,9.40
2023-05-13T11:11:28.794Z,9.40
2023-05-13T11:14:01.363Z,9.40
2023-05-13T11:16:31.834Z,9.50
2023-05-13T11:19:03.646Z,9.50
2023-05-13T11:21:38.214Z,9.50
2023-05-13T11:24:09.515Z,9.50
2023-05-13T11:26:49.150Z,9.60
2023-05-13T11:29:29.873Z,9.60
2023-05-13T11:32:00.814Z,9.60
2023-05-13T11:34:30.617Z,9.70
2023-05-13T11:37:06.168Z,9.70
2023-05-13T11:39:36.788Z,9.70
2023-05-13T11:42:10.410Z,9.80
2023-05-13T11:44:47.059Z,9.80
2023-05-13T11:47:17.282Z,9.80
2023-05-13T11:49:49.102Z,9.80
2023-05-13T11:52:20.717Z,9.80
2023-05-13T11:54:51.442Z,9.90
2023-05-13T11:57:22.302Z,9.90
2023-05-13T11:59:52.549Z,9.90
2023-05-13T12:02:26.496Z,9.90
2023-05-13T12:04:56.263Z,9.90
2023-05-13T12:07:27.212Z,10.00
2023-05-13T12:09:59.796Z,10.00
2023-05-13T12:12:31.162Z,9.90
2023-05-13T12:15:08.778Z,10.00
2023-05-13T12:17:39.740Z,9.90
2023-05-13T12:20:15.248Z,10.00
2023-05-13T12:22:47.796Z,10.00
2023-05-13T12:25:35.218Z,10.00
2023-05-13T12:28:12.400Z,10.00
2023-05-13T13:16:59.095Z,9.80
2023-05-13T13:19:28.523Z,9.80
2023-05-13T13:21:58.334Z,9.80
2023-05-13T13:24:27.962Z,9.80
2023-05-13T13:26:58.392Z,9.80
2023-05-13T13:29:27.998Z,9.90
2023-05-13T13:31:57.451Z,9.90
2023-05-13T13:34:28.037Z,9.90
2023-05-13T13:36:57.455Z,10.00
2023-05-13T13:39:27.565Z,10.00
2023-05-13T13:41:57.280Z,10.00
2023-05-13T13:44:28.522Z,10.00
2023-05-13T13:46:58.146Z,10.00
2023-05-13T13:49:27.758Z,10.10
2023-05-13T13:51:57.112Z,10.00
2023-05-13T13:54:26.968Z,10.10
2023-05-13T13:56:56.353Z,10.10
2023-05-13T13:59:25.717Z,10.10
2023-05-13T14:01:55.565Z,10.10
2023-05-13T14:04:28.136Z,10.10
2023-05-13T14:06:58.203Z,10.10
2023-05-13T14:09:28.018Z,10.00
2023-05-13T14:11:57.958Z,10.00
2023-05-13T14:14:27.783Z,10.00
2023-05-13T14:16:57.205Z,10.00
2023-05-13T14:19:27.234Z,10.00
2023-05-13T14:21:57.000Z,10.00
2023-05-13T14:24:26.793Z,10.00
2023-05-13T14:26:56.272Z,9.90
2023-05-13T14:29:25.725Z,9.90
2023-05-13T14:31:55.288Z,9.90
2023-05-13T14:34:25.322Z,9.90
2023-05-13T14:36:54.721Z,9.90
2023-05-13T14:39:24.148Z,9.80
2023-05-13T14:41:53.657Z,9.90
2023-05-13T14:44:23.043Z,9.90
2023-05-13T16:09:19.670Z,9.70
2023-05-13T16:11:49.041Z,9.70
2023-05-13T16:14:19.377Z,9.60
2023-05-13T16:16:49.204Z,9.60
2023-05-13T16:19:18.577Z,9.60
2023-05-13T16:21:47.935Z,9.60
2023-05-13T16:24:18.364Z,9.70
2023-05-13T16:26:48.023Z,9.70
2023-05-13T16:29:17.417Z,9.60
2023-05-13T16:31:46.896Z,9.60
2023-05-13T16:34:16.403Z,9.60
2023-05-13T16:36:46.013Z,9.60
2023-05-13T16:39:15.452Z,9.60
2023-05-13T16:41:44.845Z,9.50
2023-05-13T16:44:14.302Z,9.50
2023-05-13T16:46:43.753Z,9.50
2023-05-13T16:49:13.262Z,9.50
2023-05-13T16:51:42.756Z,9.50
2023-05-13T16:54:12.220Z,9.60
2023-05-13T16:56:41.586Z,9.50
2023-05-13T16:59:11.395Z,9.50
2023-05-13T17:01:41.322Z,9.50
2023-05-13T17:04:11.069Z,9.50
2023-05-13T17:06:40.487Z,9.50
2023-05-13T17:09:10.009Z,9.50
2023-05-13T17:11:40.775Z,9.50
2023-05-13T17:14:10.620Z,9.50
2023-05-13T17:16:40.288Z,9.50
2023-05-13T17:19:10.239Z,9.50
2023-05-13T17:21:39.723Z,9.40
2023-05-13T17:24:10.220Z,9.40
2023-05-13T17:26:39.712Z,9.40
2023-05-13T17:29:09.062Z,9.40
2023-05-13T17:31:38.559Z,9.50
2023-05-13T17:34:09.057Z,9.40
2023-05-13T17:36:38.866Z,9.40
2023-05-13T17:39:08.295Z,9.40
2023-05-13T17:41:37.675Z,9.40
2023-05-13T17:44:07.575Z,9.40
2023-05-13T17:46:37.950Z,9.40
2023-05-13T17:49:08.661Z,9.40
2023-05-13T17:51:38.140Z,9.30
2023-05-13T17:54:07.517Z,9.30
2023-05-13T17:56:36.901Z,9.40
2023-05-13T17:59:06.369Z,9.30
2023-05-13T18:01:36.784Z,9.30
2023-05-13T18:04:06.328Z,9.30
2023-05-13T18:06:35.705Z,9.20
2023-05-13T18:09:05.110Z,9.20
2023-05-13T18:11:34.510Z,9.10
2023-05-13T18:14:05.152Z,9.20
2023-05-13T18:16:34.715Z,9.10
2023-05-13T18:19:04.214Z,9.10
2023-05-13T18:21:33.706Z,9.00
2023-05-13T18:24:03.249Z,8.90
2023-05-13T18:26:32.708Z,8.80
2023-05-13T18:29:02.225Z,8.80
2023-05-13T18:31:31.684Z,8.80
2023-05-13T18:34:01.077Z,8.70
2023-05-13T18:36:30.620Z,8.70
2023-05-13T18:38:59.980Z,8.70
2023-05-13T18:41:29.322Z,8.60
2023-05-13T18:43:59.742Z,8.60
2023-05-13T18:46:30.385Z,8.50
2023-05-13T18:49:01.855Z,8.50
2023-05-13T18:51:31.630Z,8.40
2023-05-13T18:54:01.468Z,8.30
2023-05-13T18:56:30.901Z,8.30
2023-05-13T18:59:00.307Z,8.30
2023-05-13T19:01:30.985Z,8.30
2023-05-13T19:04:00.609Z,8.20
2023-05-13T19:06:30.265Z,8.20
2023-05-13T19:08:59.690Z,8.10
2023-05-13T19:11:30.148Z,8.10
2023-05-13T19:14:00.036Z,8.00
2023-05-13T19:16:29.529Z,8.00
2023-05-13T19:19:00.093Z,7.80
2023-05-13T19:21:30.629Z,7.80
2023-05-13T19:24:00.241Z,7.80
2023-05-13T19:26:30.997Z,7.80
2023-05-13T19:29:00.394Z,7.70
2023-05-13T19:31:30.038Z,7.70
2023-05-13T19:33:59.433Z,7.70
2023-05-13T19:36:29.061Z,7.70
2023-05-13T19:38:58.519Z,7.60
2023-05-13T19:41:27.940Z,7.60
2023-05-13T19:43:57.358Z,7.60
2023-05-13T19:46:26.844Z,7.60
2023-05-13T19:48:56.558Z,7.60
2023-05-13T19:51:26.026Z,7.60
2023-05-13T19:53:55.387Z,7.60
2023-05-13T19:56:25.858Z,7.60
2023-05-13T19:58:56.451Z,7.60
2023-05-13T20:01:26.357Z,7.70
2023-05-13T20:03:56.864Z,7.80
2023-05-13T20:06:27.388Z,7.80
2023-05-13T20:08:57.919Z,7.80
2023-05-13T20:11:28.070Z,7.80
2023-05-13T20:13:58.231Z,7.90
2023-05-13T20:16:27.655Z,7.90
2023-05-13T20:18:57.034Z,8.00
2023-05-13T20:21:26.860Z,8.00
2023-05-13T20:23:56.269Z,8.00
2023-05-13T20:26:27.355Z,8.00
2023-05-13T20:28:56.948Z,8.00
2023-05-13T20:31:26.382Z,8.00
2023-05-13T20:33:57.470Z,7.90
2023-05-13T20:36:26.857Z,7.90
2023-05-13T20:38:56.394Z,7.80
2023-05-13T20:41:27.012Z,7.80
2023-05-13T20:43:56.843Z,7.80
2023-05-13T20:46:26.307Z,7.70
2023-05-13T20:48:55.753Z,7.70
2023-05-13T20:51:26.238Z,7.70
2023-05-13T20:53:55.621Z,7.60
2023-05-13T20:56:25.422Z,7.60
2023-05-13T20:58:56.006Z,7.60
2023-05-13T21:01:25.492Z,7.50
2023-05-13T21:03:55.008Z,7.50
2023-05-13T21:06:24.508Z,7.40
2023-05-13T21:08:53.974Z,7.40
2023-05-13T21:11:23.582Z,7.40
2023-05-13T21:13:53.367Z,7.30
2023-05-13T21:16:23.018Z,7.30
2023-05-13T21:18:52.474Z,7.30
2023-05-13T21:21:22.899Z,7.30
2023-05-13T21:23:52.446Z,7.20
2023-05-13T21:26:23.453Z,7.20
2023-05-13T21:28:52.844Z,7.20
2023-05-13T21:31:22.286Z,7.20
2023-05-13T21:33:51.677Z,7.10
2023-05-13T21:36:21.247Z,7.20
2023-05-13T21:38:52.266Z,7.20
2023-05-13T21:41:22.334Z,7.20
2023-05-13T21:43:51.754Z,7.20
2023-05-13T21:46:21.100Z,7.20
2023-05-13T21:48:51.750Z,7.20
2023-05-13T21:51:21.151Z,7.20
2023-05-13T21:53:50.594Z,7.20
2023-05-13T21:56:19.962Z,7.30
2023-05-13T21:58:49.415Z,7.30
2023-05-13T22:01:18.969Z,7.30
2023-05-13T22:03:48.382Z,7.40
2023-05-13T22:06:17.768Z,7.40
2023-05-13T22:08:47.315Z,7.40
2023-05-13T22:11:16.824Z,7.50
2023-05-13T22:13:47.235Z,7.50
2023-05-13T22:16:16.755Z,7.50
2023-05-13T22:18:46.304Z,7.60
2023-05-13T22:21:15.743Z,7.80
2023-05-13T22:23:45.169Z,7.80
2023-05-13T22:26:14.975Z,7.90
2023-05-13T22:28:44.326Z,7.90
2023-05-13T22:31:14.747Z,8.10
2023-05-13T22:33:45.828Z,8.20
2023-05-13T22:36:15.520Z,8.30
2023-05-13T22:38:45.998Z,8.30
2023-05-13T22:41:15.336Z,8.50
2023-05-13T22:43:45.550Z,8.60
2023-05-13T22:46:14.953Z,8.70
2023-05-13T22:48:45.338Z,8.80
2023-05-13T22:51:14.838Z,8.90
2023-05-13T22:53:45.431Z,9.00
2023-05-13T22:56:14.863Z,9.10
2023-05-13T22:58:44.235Z,9.20
2023-05-13T23:01:13.654Z,9.30
2023-05-13T23:03:43.074Z,9.30
2023-05-13T23:06:12.817Z,9.40
2023-05-13T23:08:42.624Z,9.50
2023-05-13T23:11:12.572Z,9.60
2023-05-13T23:13:41.966Z,9.70
2023-05-13T23:16:11.415Z,9.80
2023-05-13T23:18:42.063Z,10.00
2023-05-13T23:21:11.582Z,10.10
2023-05-13T23:23:41.018Z,10.20
2023-05-13T23:26:10.362Z,10.30
2023-05-13T23:28:39.717Z,10.40
2023-05-13T23:31:09.194Z,10.50
2023-05-13T23:33:39.578Z,10.60
2023-05-13T23:36:09.074Z,10.70
2023-05-13T23:38:38.824Z,10.80
2023-05-13T23:41:08.655Z,10.90
2023-05-13T23:43:38.041Z,11.00
2023-05-13T23:46:08.005Z,11.10
2023-05-13T23:48:39.549Z,11.30
2023-05-13T23:51:09.995Z,11.30
2023-05-13T23:53:39.494Z,11.50
2023-05-13T23:56:09.957Z,11.60
2023-05-13T23:58:40.713Z,11.70
